createdAt,value
2017-10-11T00:00:08.588Z,3.73
2017-10-11T00:02:36.265Z,3.50
2017-10-11T00:05:03.898Z,4.07
2017-10-11T00:07:31.529Z,3.40
2017-10-11T00:09:59.220Z,3.37
2017-10-11T00:12:26.842Z,3.23
2017-10-11T00:14:54.473Z,3.30
2017-10-11T00:20:04.787Z,3.62
2017-10-11T00:22:33.238Z,3.40
2017-10-11T00:25:00.851Z,3.13
2017-10-11T00:27:28.895Z,3.67
2017-10-11T00:29:56.155Z,3.57
2017-10-11T00:32:23.783Z,3.03
2017-10-11T00:34:51.392Z,3.10
2017-10-11T00:37:19.068Z,2.83
2017-10-11T00:39:46.707Z,2.80
2017-10-11T00:42:14.326Z,3.67
2017-10-11T00:44:42.008Z,3.20
2017-10-11T00:47:09.624Z,3.40
2017-10-11T00:49:37.243Z,3.57
2017-10-11T00:52:04.910Z,2.77
2017-10-11T00:54:32.534Z,2.93
2017-10-11T00:57:00.151Z,3.10
2017-10-11T00:59:27.831Z,3.27
2017-10-11T01:01:55.447Z,2.93
2017-10-11T01:04:23.799Z,2.90
2017-10-11T01:06:51.467Z,2.90
2017-10-11T01:09:20.070Z,2.80
2017-10-11T01:11:48.646Z,2.90
2017-10-11T01:14:16.323Z,3.20
2017-10-11T01:19:22.789Z,2.97
2017-10-11T01:21:50.415Z,3.23
2017-10-11T01:24:18.033Z,3.20
2017-10-11T01:26:45.748Z,3.33
2017-10-11T01:29:13.380Z,3.17
2017-10-11T01:31:41.031Z,3.20
2017-10-11T01:34:08.713Z,3.63
2017-10-11T01:36:36.332Z,2.83
2017-10-11T01:39:03.957Z,3.07
2017-10-11T01:41:31.627Z,3.10
2017-10-11T01:43:59.245Z,3.80
2017-10-11T01:46:27.782Z,3.43
2017-10-11T01:48:55.455Z,2.70
2017-10-11T01:51:23.081Z,3.20
2017-10-11T01:53:50.700Z,3.17
2017-10-11T01:56:18.376Z,3.67
2017-10-11T01:58:46.006Z,3.87
2017-10-11T02:01:14.581Z,3.53
2017-10-11T02:03:42.259Z,3.07
2017-10-11T02:06:09.880Z,3.13
2017-10-11T02:08:37.498Z,3.73
2017-10-11T02:11:05.251Z,3.63
2017-10-11T02:13:32.871Z,2.80
2017-10-11T02:16:00.498Z,2.70
2017-10-11T02:18:28.169Z,2.90
2017-10-11T02:20:55.794Z,2.97
2017-10-11T02:23:23.413Z,2.97
2017-10-11T02:25:51.093Z,2.97
2017-10-11T02:28:18.707Z,3.10
2017-10-11T02:30:46.327Z,2.90
2017-10-11T02:35:53.926Z,3.35
2017-10-11T02:38:21.644Z,3.03
2017-10-11T02:40:49.270Z,2.93
2017-10-11T02:43:16.902Z,2.97
2017-10-11T02:45:44.594Z,3.40
2017-10-11T02:48:12.222Z,3.13
2017-10-11T02:50:39.840Z,2.83
2017-10-11T02:53:07.520Z,3.10
2017-10-11T02:55:35.162Z,3.10
2017-10-11T02:58:02.798Z,3.67
2017-10-11T03:00:30.478Z,2.70
2017-10-11T03:02:58.106Z,2.57
2017-10-11T03:05:25.719Z,2.90
2017-10-11T03:07:53.396Z,2.53
2017-10-11T03:10:21.025Z,2.70
2017-10-11T03:12:48.651Z,3.37
2017-10-11T03:15:16.327Z,3.23
2017-10-11T03:17:43.947Z,2.87
2017-10-11T03:20:11.568Z,2.87
2017-10-11T03:22:39.240Z,2.60
2017-10-11T03:25:06.855Z,3.93
2017-10-11T03:27:34.471Z,3.40
2017-10-11T03:30:02.158Z,3.27
2017-10-11T03:32:29.780Z,3.07
2017-10-11T03:34:57.400Z,2.53
2017-10-11T03:37:25.083Z,2.80
2017-10-11T03:39:52.761Z,3.30
2017-10-11T03:42:20.326Z,2.73
2017-10-11T03:44:48.011Z,3.47
2017-10-11T03:47:15.626Z,3.00
2017-10-11T03:49:43.251Z,3.00
2017-10-11T03:52:10.932Z,2.83
2017-10-11T03:54:38.551Z,2.77
2017-10-11T03:57:06.176Z,3.13
2017-10-11T03:59:33.852Z,2.90
2017-10-11T04:04:41.478Z,3.78
2017-10-11T04:07:09.115Z,2.80
2017-10-11T04:09:36.748Z,3.33
2017-10-11T04:12:04.436Z,3.10
2017-10-11T04:14:32.078Z,3.00
2017-10-11T04:16:59.704Z,3.87
2017-10-11T04:19:28.223Z,3.87
2017-10-11T04:21:55.857Z,3.70
2017-10-11T04:24:23.481Z,3.73
2017-10-11T04:26:51.160Z,3.70
2017-10-11T04:29:18.784Z,4.20
2017-10-11T04:31:46.416Z,3.97
2017-10-11T04:34:14.107Z,4.07
2017-10-11T04:36:41.735Z,3.30
2017-10-11T04:39:09.357Z,3.47
2017-10-11T04:41:37.084Z,3.43
2017-10-11T04:44:04.712Z,3.77
2017-10-11T04:46:32.331Z,4.00
2017-10-11T04:49:00.004Z,4.30
2017-10-11T04:51:27.633Z,4.13
2017-10-11T04:53:55.276Z,4.00
2017-10-11T04:56:22.948Z,3.67
2017-10-11T04:58:50.579Z,3.67
2017-10-11T05:01:18.199Z,3.63
2017-10-11T05:03:45.879Z,3.60
2017-10-11T05:06:13.499Z,4.33
2017-10-11T05:08:41.124Z,4.50
2017-10-11T05:11:08.789Z,3.77
2017-10-11T05:13:36.427Z,3.50
2017-10-11T05:16:04.046Z,3.83
2017-10-11T05:18:31.716Z,3.87
2017-10-11T05:20:59.336Z,4.23
2017-10-11T05:23:26.970Z,5.50
2017-10-11T05:28:33.717Z,5.12
2017-10-11T05:31:01.403Z,5.90
2017-10-11T05:33:29.015Z,4.87
2017-10-11T05:35:56.637Z,4.63
2017-10-11T05:38:24.318Z,4.70
2017-10-11T05:40:51.945Z,4.17
2017-10-11T05:43:19.572Z,4.43
2017-10-11T05:45:47.249Z,4.20
2017-10-11T05:48:15.814Z,3.90
2017-10-11T05:50:43.443Z,4.87
2017-10-11T05:53:11.123Z,4.80
2017-10-11T05:55:38.746Z,3.93
2017-10-11T05:58:06.361Z,5.10
2017-10-11T06:00:34.041Z,5.90
2017-10-11T06:03:01.672Z,6.60
2017-10-11T06:05:29.286Z,5.70
2017-10-11T06:07:56.968Z,5.50
2017-10-11T06:10:24.588Z,6.00
2017-10-11T06:12:52.771Z,4.93
2017-10-11T06:15:20.456Z,4.60
2017-10-11T06:17:48.081Z,5.10
2017-10-11T06:20:15.707Z,5.50
2017-10-11T06:22:43.393Z,5.10
2017-10-11T06:25:11.015Z,4.27
2017-10-11T06:27:38.640Z,4.63
2017-10-11T06:30:06.316Z,4.90
2017-10-11T06:32:33.974Z,4.70
2017-10-11T06:35:01.593Z,4.63
2017-10-11T06:37:30.104Z,5.10
2017-10-11T06:39:57.728Z,4.40
2017-10-11T06:42:26.185Z,5.57
2017-10-11T06:44:53.869Z,5.90
2017-10-11T06:47:21.499Z,6.37
2017-10-11T06:49:49.131Z,4.97
2017-10-11T06:52:16.819Z,5.77
2017-10-11T06:54:44.447Z,5.70
2017-10-11T06:59:51.224Z,5.53
2017-10-11T07:02:19.715Z,5.57
2017-10-11T07:04:48.192Z,5.57
2017-10-11T07:07:15.884Z,6.67
2017-10-11T07:09:43.507Z,5.23
2017-10-11T07:12:11.994Z,5.63
2017-10-11T07:14:40.688Z,5.37
2017-10-11T07:17:08.316Z,5.13
2017-10-11T07:19:35.942Z,5.30
2017-10-11T07:22:03.648Z,5.00
2017-10-11T07:24:31.269Z,4.70
2017-10-11T07:26:58.903Z,5.80
2017-10-11T07:29:26.595Z,6.20
2017-10-11T07:34:21.881Z,4.53
2017-10-11T07:36:49.577Z,4.97
2017-10-11T07:39:17.200Z,4.07
2017-10-11T07:41:44.836Z,4.77
2017-10-11T07:44:12.525Z,4.47
2017-10-11T07:46:40.161Z,4.43
2017-10-11T07:49:07.785Z,4.83
2017-10-11T07:51:35.485Z,4.93
2017-10-11T07:54:03.116Z,4.87
2017-10-11T07:56:30.739Z,4.63
2017-10-11T07:58:58.437Z,4.57
2017-10-11T08:01:26.067Z,4.43
2017-10-11T08:03:53.697Z,5.10
2017-10-11T08:06:21.390Z,4.50
2017-10-11T08:08:49.033Z,4.03
2017-10-11T08:11:17.489Z,4.27
2017-10-11T08:13:45.168Z,4.47
2017-10-11T08:16:12.825Z,3.77
2017-10-11T08:18:40.465Z,3.87
2017-10-11T08:23:48.221Z,4.80
2017-10-11T08:26:15.932Z,5.13
2017-10-11T08:28:43.568Z,3.73
2017-10-11T08:31:11.204Z,4.93
2017-10-11T08:33:38.885Z,4.10
2017-10-11T08:36:06.513Z,3.43
2017-10-11T08:38:35.114Z,3.17
2017-10-11T08:41:02.851Z,4.10
2017-10-11T08:43:30.491Z,4.77
2017-10-11T08:45:58.120Z,3.43
2017-10-11T08:48:25.815Z,3.60
2017-10-11T08:50:54.274Z,3.77
2017-10-11T08:53:21.894Z,3.00
2017-10-11T08:55:49.582Z,2.87
2017-10-11T08:58:17.240Z,2.33
2017-10-11T09:00:45.697Z,2.50
2017-10-11T09:03:14.244Z,3.03
2017-10-11T09:05:41.889Z,3.33
2017-10-11T09:08:09.512Z,2.57
2017-10-11T09:10:37.979Z,3.03
2017-10-11T09:13:05.611Z,2.60
2017-10-11T09:15:33.248Z,2.23
2017-10-11T09:18:00.938Z,2.77
2017-10-11T09:20:28.581Z,2.83
2017-10-11T09:22:56.216Z,3.07
2017-10-11T09:25:24.732Z,2.70
2017-10-11T09:27:52.354Z,2.70
2017-10-11T09:30:20.004Z,2.67
2017-10-11T09:32:47.696Z,2.43
2017-10-11T09:35:15.335Z,3.30
2017-10-11T09:40:22.950Z,2.67
2017-10-11T09:42:50.579Z,2.73
2017-10-11T09:45:18.207Z,2.80
2017-10-11T09:47:45.901Z,3.40
2017-10-11T09:50:13.525Z,3.00
2017-10-11T09:52:41.159Z,3.07
2017-10-11T09:55:08.849Z,3.17
2017-10-11T09:57:36.485Z,3.07
2017-10-11T10:00:04.114Z,3.00
2017-10-11T10:02:31.801Z,2.60
2017-10-11T10:04:59.434Z,3.10
2017-10-11T10:07:27.061Z,3.00
2017-10-11T10:09:54.767Z,3.00
2017-10-11T10:12:22.400Z,2.77
2017-10-11T10:14:50.030Z,2.53
2017-10-11T10:17:17.709Z,3.23
2017-10-11T10:19:45.360Z,2.20
2017-10-11T10:22:12.989Z,2.40
2017-10-11T10:24:41.625Z,2.60
2017-10-11T10:27:09.267Z,2.70
2017-10-11T10:29:36.905Z,2.70
2017-10-11T10:32:04.598Z,2.40
2017-10-11T10:34:32.245Z,2.63
2017-10-11T10:36:59.863Z,2.83
2017-10-11T10:39:27.561Z,2.70
2017-10-11T10:41:55.194Z,2.70
2017-10-11T10:44:22.822Z,2.67
2017-10-11T10:46:50.509Z,2.40
2017-10-11T10:49:18.142Z,2.70
2017-10-11T10:51:45.768Z,2.57
2017-10-11T10:54:13.456Z,2.77
2017-10-11T10:56:41.815Z,3.33
2017-10-11T10:59:09.448Z,2.83
2017-10-11T11:01:38.074Z,3.33
2017-10-11T11:06:44.952Z,3.05
2017-10-11T11:09:12.627Z,3.00
2017-10-11T11:11:40.183Z,2.87
2017-10-11T11:14:07.872Z,3.30
2017-10-11T11:16:35.501Z,2.97
2017-10-11T11:19:03.132Z,2.67
2017-10-11T11:21:30.820Z,2.70
2017-10-11T11:23:58.440Z,1.90
2017-10-11T11:26:26.076Z,2.73
2017-10-11T11:28:53.758Z,2.60
2017-10-11T11:31:21.385Z,2.83
2017-10-11T11:33:49.025Z,2.67
2017-10-11T11:36:16.712Z,2.80
2017-10-11T11:38:44.344Z,2.70
2017-10-11T11:41:11.965Z,2.60
2017-10-11T11:43:39.650Z,3.13
2017-10-11T11:46:07.281Z,3.10
2017-10-11T11:48:34.913Z,2.70
2017-10-11T11:51:02.607Z,3.07
2017-10-11T11:53:30.232Z,3.10
2017-10-11T11:55:58.401Z,2.80
2017-10-11T11:58:26.906Z,2.87
2017-10-11T12:00:54.541Z,2.90
2017-10-11T12:03:22.171Z,3.03
2017-10-11T12:05:49.865Z,3.40
2017-10-11T12:08:17.508Z,3.67
2017-10-11T12:10:45.139Z,3.67
2017-10-11T12:13:12.822Z,3.80
2017-10-11T12:15:40.460Z,3.23
2017-10-11T12:18:08.091Z,3.13
2017-10-11T12:20:35.794Z,3.30
2017-10-11T12:23:03.424Z,3.43
2017-10-11T12:28:02.835Z,2.97
2017-10-11T12:30:30.464Z,2.63
2017-10-11T12:35:39.272Z,3.50
2017-10-11T12:38:06.896Z,3.10
2017-10-11T12:40:35.394Z,2.73
2017-10-11T12:43:03.078Z,3.40
2017-10-11T12:45:30.714Z,2.73
2017-10-11T12:47:58.392Z,2.80
2017-10-11T12:50:26.098Z,2.93
2017-10-11T12:52:53.732Z,2.90
2017-10-11T12:55:21.355Z,2.20
2017-10-11T12:57:49.043Z,2.47
2017-10-11T13:00:16.670Z,2.40
2017-10-11T13:02:44.303Z,2.90
2017-10-11T13:05:11.988Z,2.30
2017-10-11T13:07:40.575Z,2.37
2017-10-11T13:10:08.205Z,2.33
2017-10-11T13:12:35.918Z,2.00
2017-10-11T13:15:03.547Z,1.67
2017-10-11T13:17:31.179Z,2.17
2017-10-11T13:19:58.859Z,2.07
2017-10-11T13:22:26.497Z,1.83
2017-10-11T13:24:54.138Z,2.17
2017-10-11T13:27:21.824Z,2.20
2017-10-11T13:29:50.441Z,2.23
2017-10-11T13:32:18.069Z,2.00
2017-10-11T13:34:47.422Z,2.10
2017-10-11T13:37:15.046Z,1.80
2017-10-11T13:39:42.684Z,2.30
2017-10-11T13:42:10.365Z,2.13
2017-10-11T13:47:17.160Z,2.28
2017-10-11T13:49:45.511Z,1.80
2017-10-11T13:52:13.214Z,1.97
2017-10-11T13:54:40.905Z,2.07
2017-10-11T13:57:08.532Z,2.10
2017-10-11T13:59:36.167Z,1.83
2017-10-11T14:02:03.857Z,2.00
2017-10-11T14:04:32.356Z,1.60
2017-10-11T14:06:59.980Z,2.20
2017-10-11T14:09:28.661Z,2.10
2017-10-11T14:11:56.288Z,2.50
2017-10-11T14:14:23.917Z,2.30
2017-10-11T14:16:51.607Z,2.63
2017-10-11T14:19:19.241Z,2.20
2017-10-11T14:21:46.872Z,2.47
2017-10-11T14:24:15.553Z,2.43
2017-10-11T14:26:43.199Z,2.50
2017-10-11T14:29:10.836Z,2.70
2017-10-11T14:31:38.521Z,2.20
2017-10-11T14:34:06.157Z,2.90
2017-10-11T14:36:33.788Z,2.33
2017-10-11T14:39:01.477Z,2.90
2017-10-11T14:41:29.101Z,2.77
2017-10-11T14:43:56.735Z,2.60
2017-10-11T14:46:24.432Z,2.70
2017-10-11T14:48:52.063Z,2.20
2017-10-11T14:51:19.690Z,2.57
2017-10-11T14:53:47.384Z,2.47
2017-10-11T14:56:15.010Z,2.77
2017-10-11T14:58:42.640Z,2.37
2017-10-11T15:01:10.324Z,2.07
2017-10-11T15:03:37.959Z,2.80
2017-10-11T15:06:05.587Z,2.07
2017-10-11T15:08:33.278Z,2.47
2017-10-11T15:11:00.911Z,2.23
2017-10-11T15:16:08.539Z,2.15
2017-10-11T15:18:36.167Z,2.10
2017-10-11T15:21:03.797Z,1.93
2017-10-11T15:23:31.488Z,2.03
2017-10-11T15:25:59.110Z,2.10
2017-10-11T15:28:26.740Z,2.00
2017-10-11T15:30:54.427Z,2.10
2017-10-11T15:33:22.061Z,2.50
2017-10-11T15:35:49.698Z,1.87
2017-10-11T15:38:17.394Z,1.70
2017-10-11T15:40:45.027Z,2.70
2017-10-11T15:43:12.663Z,2.27
2017-10-11T15:45:40.356Z,2.77
2017-10-11T15:48:07.989Z,2.30
2017-10-11T15:50:36.444Z,2.00
2017-10-11T15:53:04.133Z,2.10
2017-10-11T15:55:31.766Z,2.20
2017-10-11T15:57:59.423Z,2.20
2017-10-11T16:00:27.109Z,2.50
2017-10-11T16:02:54.736Z,2.73
2017-10-11T16:05:22.440Z,2.20
2017-10-11T16:07:50.086Z,2.73
2017-10-11T16:10:17.719Z,2.40
2017-10-11T16:12:45.354Z,2.40
2017-10-11T16:15:13.040Z,3.10
2017-10-11T16:17:41.634Z,2.50
2017-10-11T16:20:10.143Z,2.87
2017-10-11T16:22:37.825Z,2.43
2017-10-11T16:25:05.457Z,2.60
2017-10-11T16:30:12.236Z,2.72
2017-10-11T16:32:39.879Z,3.13
2017-10-11T16:35:07.519Z,2.33
2017-10-11T16:37:35.212Z,2.60
2017-10-11T16:40:03.800Z,2.40
2017-10-11T16:42:31.431Z,2.50
2017-10-11T16:44:59.109Z,2.53
2017-10-11T16:47:26.746Z,2.27
2017-10-11T16:49:54.369Z,2.97
2017-10-11T16:52:22.041Z,2.57
2017-10-11T16:54:49.667Z,3.03
2017-10-11T16:57:18.072Z,2.23
2017-10-11T16:59:45.713Z,2.23
2017-10-11T17:02:14.150Z,2.53
2017-10-11T17:04:41.780Z,2.67
2017-10-11T17:07:09.513Z,2.40
2017-10-11T17:09:37.136Z,2.47
2017-10-11T17:12:04.755Z,2.40
2017-10-11T17:14:32.439Z,2.43
2017-10-11T17:17:00.068Z,2.27
2017-10-11T17:19:27.694Z,2.37
2017-10-11T17:21:55.389Z,2.60
2017-10-11T17:24:23.010Z,2.17
2017-10-11T17:26:50.679Z,2.13
2017-10-11T17:29:18.342Z,2.70
2017-10-11T17:31:45.968Z,2.20
2017-10-11T17:34:13.609Z,2.17
2017-10-11T17:36:41.301Z,2.50
2017-10-11T17:39:08.920Z,2.00
2017-10-11T17:41:37.459Z,2.57
2017-10-11T17:44:05.154Z,2.40
2017-10-11T17:46:32.782Z,2.33
2017-10-11T17:49:00.401Z,2.83
2017-10-11T17:54:07.283Z,3.45
2017-10-11T17:56:34.977Z,3.40
2017-10-11T17:59:03.483Z,3.00
2017-10-11T18:01:31.111Z,2.63
2017-10-11T18:03:58.808Z,2.40
2017-10-11T18:06:26.435Z,2.80
2017-10-11T18:08:54.068Z,2.30
2017-10-11T18:11:21.798Z,2.70
2017-10-11T18:13:49.437Z,2.63
2017-10-11T18:16:17.077Z,3.17
2017-10-11T18:18:44.765Z,3.20
2017-10-11T18:21:12.416Z,2.60
2017-10-11T18:23:40.049Z,2.60
2017-10-11T18:26:07.729Z,2.80
2017-10-11T18:28:35.376Z,2.60
2017-10-11T18:31:02.999Z,2.43
2017-10-11T18:33:30.704Z,2.30
2017-10-11T18:35:58.359Z,2.97
2017-10-11T18:38:25.987Z,3.30
2017-10-11T18:40:53.661Z,2.93
2017-10-11T18:43:21.290Z,3.60
2017-10-11T18:45:48.919Z,2.73
2017-10-11T18:48:16.598Z,2.93
2017-10-11T18:50:44.258Z,3.23
2017-10-11T18:53:12.090Z,2.70
2017-10-11T18:55:39.771Z,2.87
2017-10-11T18:58:07.398Z,3.20
2017-10-11T19:00:35.048Z,3.57
2017-10-11T19:03:02.749Z,2.27
2017-10-11T19:05:30.399Z,3.30
2017-10-11T19:07:58.046Z,4.10
2017-10-11T19:10:25.733Z,3.67
2017-10-11T19:15:32.506Z,4.18
2017-10-11T19:18:00.306Z,3.43
2017-10-11T19:20:27.927Z,3.10
2017-10-11T19:22:55.996Z,3.40
2017-10-11T19:28:03.773Z,4.00
2017-10-11T19:30:31.523Z,3.70
2017-10-11T19:32:59.160Z,3.97
2017-10-11T19:35:26.845Z,3.90
2017-10-11T19:37:54.924Z,3.07
2017-10-11T19:40:22.766Z,4.40
2017-10-11T19:42:51.648Z,4.40
2017-10-11T19:45:19.264Z,3.40
2017-10-11T19:47:47.143Z,3.67
2017-10-11T19:50:14.850Z,3.50
2017-10-11T19:52:42.614Z,3.43
2017-10-11T19:55:10.243Z,3.37
2017-10-11T19:57:37.954Z,4.50
2017-10-11T20:00:11.548Z,4.60
2017-10-11T20:08:41.556Z,4.60
2017-10-11T20:11:09.171Z,5.13
2017-10-11T20:13:36.850Z,4.63
2017-10-11T20:16:04.739Z,4.93
2017-10-11T20:18:32.348Z,5.30
2017-10-11T20:21:00.355Z,4.67
2017-10-11T20:23:28.044Z,5.17
2017-10-11T20:25:55.691Z,5.80
2017-10-11T20:28:23.295Z,4.47
2017-10-11T20:30:50.981Z,5.23
2017-10-11T20:33:18.629Z,5.60
2017-10-11T20:35:46.233Z,3.60
2017-10-11T20:38:13.911Z,5.17
2017-10-11T20:40:41.647Z,4.63
2017-10-11T20:43:09.271Z,4.20
2017-10-11T20:45:36.983Z,4.17
2017-10-11T20:48:04.611Z,3.80
2017-10-11T20:50:32.241Z,3.37
2017-10-11T20:52:59.924Z,3.03
2017-10-11T20:55:27.662Z,3.80
2017-10-11T20:57:55.295Z,2.93
2017-10-11T21:00:23.045Z,3.20
2017-10-11T21:02:50.728Z,3.57
2017-10-11T21:05:18.360Z,3.47
2017-10-11T21:07:46.108Z,3.10
2017-10-11T21:10:13.763Z,3.40
2017-10-11T21:12:41.398Z,3.10
2017-10-11T21:15:09.149Z,2.83
2017-10-11T21:17:36.786Z,2.90
2017-10-11T21:20:04.430Z,2.97
2017-10-11T21:22:32.128Z,3.60
2017-10-11T21:24:59.768Z,2.97
2017-10-11T21:27:27.417Z,3.20
2017-10-11T21:29:55.104Z,2.37
2017-10-11T21:35:01.881Z,3.25
2017-10-11T21:37:29.517Z,4.40
2017-10-11T21:39:57.152Z,3.33
2017-10-11T21:42:24.843Z,3.47
2017-10-11T21:44:52.481Z,3.60
2017-10-11T21:47:20.116Z,4.07
2017-10-11T21:49:47.804Z,4.23
2017-10-11T21:52:15.454Z,4.40
2017-10-11T21:54:43.096Z,4.93
2017-10-11T21:57:10.794Z,4.70
2017-10-11T21:59:38.430Z,5.07
2017-10-11T22:02:06.064Z,5.20
2017-10-11T22:04:33.769Z,4.80
2017-10-11T22:07:01.430Z,4.40
2017-10-11T22:09:29.039Z,4.70
2017-10-11T22:11:56.742Z,4.23
2017-10-11T22:14:24.394Z,4.00
2017-10-11T22:16:52.969Z,4.33
2017-10-11T22:19:20.678Z,4.10
2017-10-11T22:21:48.310Z,4.00
2017-10-11T22:24:16.636Z,3.93
2017-10-11T22:26:45.601Z,4.30
2017-10-11T22:29:13.228Z,4.33
2017-10-11T22:34:20.976Z,4.68
2017-10-11T22:36:48.618Z,4.77
2017-10-11T22:39:17.103Z,4.43
2017-10-11T22:41:45.158Z,4.37
2017-10-11T22:44:12.811Z,3.77
2017-10-11T22:46:40.451Z,4.23
2017-10-11T22:49:08.235Z,4.13
2017-10-11T22:51:35.838Z,3.80
2017-10-11T22:54:03.475Z,4.10
2017-10-11T22:56:31.169Z,4.77
2017-10-11T22:58:58.811Z,4.53
2017-10-11T23:01:27.272Z,4.00
2017-10-11T23:03:54.958Z,3.80
2017-10-11T23:06:22.597Z,4.50
2017-10-11T23:08:50.220Z,4.67
2017-10-11T23:11:17.918Z,4.40
2017-10-11T23:13:45.555Z,3.87
2017-10-11T23:16:13.179Z,3.00
2017-10-11T23:18:40.864Z,3.60
2017-10-11T23:21:08.495Z,3.83
2017-10-11T23:23:36.125Z,3.60
2017-10-11T23:26:03.810Z,4.43
2017-10-11T23:28:31.438Z,4.73
2017-10-11T23:30:59.070Z,4.33
2017-10-11T23:33:26.754Z,4.07
2017-10-11T23:35:54.381Z,4.70
2017-10-11T23:38:22.006Z,3.70
2017-10-11T23:40:50.664Z,4.27
2017-10-11T23:43:18.286Z,4.63
2017-10-11T23:45:45.905Z,4.60
2017-10-11T23:48:13.581Z,4.27
2017-10-11T23:50:41.198Z,4.63
2017-10-11T23:55:47.959Z,4.87
2017-10-11T23:58:15.577Z,4.57
